Open Full Screen Window  High Contrast Mode
Wind Gusting 16 knots
12
September 04, 2015 1:40 PM CDT
Present Weather: Thunderstorms in the Vicinity
Weather Information
Wind Direction
  150 °
Wind Speed
  12 kt (14 mph)
Wind Gust
  16 kt (18 mph)
Altimeter
29.85 in
Visibility
10 SM
Temperature
22° C
72° F
Dewpoint
22° C
72° F
Humidity
100%
1hr Rain Fall
00.00 in.
24hr Rain Fall
00.00 in.
Sky Condition
Scattered @ 11,000 ft
VFR

METAR KMDS 041840Z AUTO 15012G16KT 10SM VCTS SCT110 22/22 A2985 RMK AO2 LTG DSNT E AND SE

*Background is not an actual portrayal of the airport.